KCAD/CAD METAR and TAF weather

Enter ICAO airport designator
Station Type Date Time Source
KCAD METAR 2022/01/26 14:35 UTC NOAA

KCAD 261435Z AUTO 19003KT 1 1/4SM -SN SCT010 OVC026 M14/M17 A3030 RMK AO2 T11431167


Station Type Date Time Source
KCAD Decoded METAR 2022/01/26 14:35 UTC NOAA

Cadillac / Wexford County, MI, United States (KCAD) 44-17N 085-25W
Jan 26, 2022 - 09:35 AM EST / 2022.01.26 1435 UTC
Wind: from the S (190 degrees) at 3 MPH (3 KT):0
Visibility: 1 1/4 mile(s):0
Sky conditions: overcast
Weather: light snow
Temperature: 6.3 F (-14.3 C)
Dew Point: 1.9 F (-16.7 C)
Relative Humidity: 81%
Pressure (altimeter): 30.3 in. Hg (1026 hPa)
ob: KCAD 261435Z AUTO 19003KT 1 1/4SM -SN SCT010 OVC026 M14/M17 A3030 RMK AO2 T11431167
cycle: 14

Station Type Date Time Source
KCAD TAF UTC NOAA

Error!

Example: see airport list